Terminal Aerodrome Forecast
Issued by NWS

Home | Current Version | Previous Version | Text Only | Print | Product List | Glossary On
Versions: 1 2 3 4 5 6 7 8 9 10 11 12 13 14 15 16 17 18 19 20 21 22 23 24 25 26 27 28 29 30
000
FTPA31 PHFO 281700
TAFJHM
TAF
PHJH 281738Z 2818/2918 04016G25KT P6SM FEW030 BKN040
     FM290400 04011KT P6SM FEW030 SCT045
     FM290800 07008KT P6SM FEW030 SCT045
      AMD NOT SKED AFT 290400=

USA.gov is the U.S. government's official web portal to all federal, state and local government web resources and services.